Time;durP1;ratioP1;P1;durP2;ratioP2;P2;SDS_P1;SDS_P2;PMS_P1;PMS_P2;Temp;Humidity;BMP_temperature;BMP_pressure;BME280_temperature;BME280_humidity;BME280_pressure;Samples;Min_cycle;Max_cycle;Signal;HPM_P1;HPM_P2
2023/06/13 00:02:10;;;;;;;2.20;2.00;;;;;;;;;;5020536;28;20050;-92
2023/06/13 00:04:43;;;;;;;2.35;2.03;;;;;;;;;;5036781;28;20486;-92
2023/06/13 00:07:09;;;;;;;2.92;1.70;;;;;;;;;;5020205;28;20382;-92
2023/06/13 00:09:35;;;;;;;1.65;1.55;;;;;;;;;;5003901;28;20127;-91
2023/06/13 00:12:02;;;;;;;1.65;1.55;;;;;;;;;;5003895;28;20143;-92
2023/06/13 00:14:28;;;;;;;2.50;1.65;;;;;;;;;;5020506;28;20493;-93
2023/06/13 00:16:55;;;;;;;3.60;1.95;;;;;;;;;;5020984;28;20152;-92
2023/06/13 00:19:23;;;;;;;2.92;2.67;;;;;;;;;;5020655;28;20053;-93
2023/06/13 00:21:50;;;;;;;2.75;2.35;;;;;;;;;;5020592;28;20062;-92
2023/06/13 00:24:16;;;;;;;5.30;1.88;;;;;;;;;;5036995;28;20049;-92
2023/06/13 00:26:42;;;;;;;3.78;2.40;;;;;;;;;;5036577;28;20099;-92
2023/06/13 00:29:08;;;;;;;2.92;1.92;;;;;;;;;;5003822;28;20088;-93
2023/06/13 00:31:34;;;;;;;2.38;1.80;;;;;;;;;;5020500;28;20048;-92
2023/06/13 00:34:01;;;;;;;4.57;2.30;;;;;;;;;;5020836;28;20080;-93
2023/06/13 00:36:28;;;;;;;2.38;2.10;;;;;;;;;;5020578;28;20113;-92
2023/06/13 00:38:58;;;;;;;2.95;2.30;;;;;;;;;;5036875;28;20045;-92
2023/06/13 00:41:27;;;;;;;4.03;2.38;;;;;;;;;;5020607;28;20512;-93
2023/06/13 00:43:53;;;;;;;2.55;2.35;;;;;;;;;;5020070;28;20136;-93
2023/06/13 00:46:28;;;;;;;4.75;2.40;;;;;;;;;;5019870;28;20100;-92
2023/06/13 00:48:57;;;;;;;2.50;2.30;;;;;;;;;;5035775;28;20056;-92
2023/06/13 00:51:24;;;;;;;3.22;2.92;;;;;;;;;;5035883;28;20053;-93
2023/06/13 00:53:50;;;;;;;2.55;2.35;;;;;;;;;;5035643;28;20081;-93
2023/06/13 00:56:16;;;;;;;2.92;2.72;;;;;;;;;;5036414;28;20049;-92
2023/06/13 00:58:43;;;;;;;3.03;2.83;;;;;;;;;;5036276;28;20245;-93
2023/06/13 01:01:10;;;;;;;3.90;3.40;;;;;;;;;;5020254;28;20057;-93
2023/06/13 01:03:36;;;;;;;4.15;3.15;;;;;;;;;;5036321;28;20107;-93
2023/06/13 01:06:03;;;;;;;6.00;3.38;;;;;;;;;;5020134;28;20064;-93
2023/06/13 01:08:29;;;;;;;5.38;3.47;;;;;;;;;;5036490;28;20490;-93
2023/06/13 01:11:09;;;;;;;3.78;3.47;;;;;;;;;;5036424;28;20049;-94
2023/06/13 01:13:43;;;;;;;3.50;3.30;;;;;;;;;;5037464;28;20045;-93
2023/06/13 01:16:21;;;;;;;5.13;3.50;;;;;;;;;;5019322;28;20045;-93
2023/06/13 01:18:49;;;;;;;3.78;3.30;;;;;;;;;;5035869;28;20045;-93
2023/06/13 01:21:17;;;;;;;4.30;3.90;;;;;;;;;;5036890;28;20167;-92
2023/06/13 01:23:49;;;;;;;4.13;3.72;;;;;;;;;;5035062;28;20060;-92
2023/06/13 01:26:34;;;;;;;4.68;4.15;;;;;;;;;;5018867;28;20136;-92
2023/06/13 01:29:00;;;;;;;4.03;3.63;;;;;;;;;;5034572;28;20038;-92
2023/06/13 01:31:30;;;;;;;3.80;3.60;;;;;;;;;;5034665;28;20042;-92
2023/06/13 01:33:56;;;;;;;4.32;3.65;;;;;;;;;;5034884;28;20406;-92
2023/06/13 01:36:22;;;;;;;4.75;3.97;;;;;;;;;;5035010;28;20042;-92
2023/06/13 01:38:50;;;;;;;5.93;3.70;;;;;;;;;;5035287;28;20045;-93
2023/06/13 01:41:16;;;;;;;4.88;4.43;;;;;;;;;;5018928;28;20103;-92
2023/06/13 01:43:42;;;;;;;4.35;3.80;;;;;;;;;;5018738;28;20466;-92
2023/06/13 01:46:12;;;;;;;8.82;4.38;;;;;;;;;;5035876;28;20053;-93
2023/06/13 01:48:53;;;;;;;3.83;3.58;;;;;;;;;;5018192;28;20136;-92
2023/06/13 01:51:19;;;;;;;6.78;3.83;;;;;;;;;;5035928;28;20050;-93
2023/06/13 01:53:47;;;;;;;3.78;3.50;;;;;;;;;;5019005;28;20045;-92
2023/06/13 01:56:18;;;;;;;4.40;3.90;;;;;;;;;;5034622;28;20053;-93
2023/06/13 01:58:48;;;;;;;3.95;3.50;;;;;;;;;;5034740;28;20055;-93
2023/06/13 02:01:14;;;;;;;4.90;4.13;;;;;;;;;;5035714;28;20045;-92
2023/06/13 02:03:40;;;;;;;5.68;4.10;;;;;;;;;;5036465;28;20046;-92
2023/06/13 02:06:06;;;;;;;4.45;4.00;;;;;;;;;;5018853;28;20546;-93
2023/06/13 02:08:32;;;;;;;3.92;3.63;;;;;;;;;;5018597;28;20042;-92
2023/06/13 02:10:58;;;;;;;4.65;4.07;;;;;;;;;;5003030;28;20049;-92
2023/06/13 02:13:25;;;;;;;4.05;3.75;;;;;;;;;;5018518;28;20203;-92
2023/06/13 02:15:51;;;;;;;3.88;3.58;;;;;;;;;;5035402;28;20049;-92
2023/06/13 02:18:17;;;;;;;3.67;3.38;;;;;;;;;;5007571;28;20103;-92
2023/06/13 02:20:43;;;;;;;6.32;3.33;;;;;;;;;;5024400;28;20525;-92
2023/06/13 02:23:10;;;;;;;3.75;3.35;;;;;;;;;;5032566;28;20077;-92
2023/06/13 02:25:36;;;;;;;5.15;3.63;;;;;;;;;;5039664;28;20029;-91
2023/06/13 02:28:02;;;;;;;4.40;3.95;;;;;;;;;;5054397;28;20037;-92
2023/06/13 02:30:28;;;;;;;4.47;4.05;;;;;;;;;;5021014;28;20520;-92
2023/06/13 02:32:54;;;;;;;3.67;3.38;;;;;;;;;;5004523;28;20049;-92
2023/06/13 02:35:23;;;;;;;4.18;3.88;;;;;;;;;;5019926;28;20046;-93
2023/06/13 02:37:53;;;;;;;3.95;3.63;;;;;;;;;;5034668;28;20049;-91
2023/06/13 02:40:19;;;;;;;3.88;3.58;;;;;;;;;;5017698;28;20050;-92
2023/06/13 02:42:49;;;;;;;4.90;4.05;;;;;;;;;;5018084;28;20072;-92
2023/06/13 02:45:15;;;;;;;3.88;3.42;;;;;;;;;;5018074;28;20053;-92
2023/06/13 02:47:41;;;;;;;3.95;3.50;;;;;;;;;;5001957;28;20052;-92
2023/06/13 02:50:08;;;;;;;3.78;3.47;;;;;;;;;;5018657;28;20072;-92
2023/06/13 02:52:34;;;;;;;4.53;3.78;;;;;;;;;;5035478;28;20041;-92
2023/06/13 02:55:00;;;;;;;6.93;3.78;;;;;;;;;;5017860;28;20508;-92
2023/06/13 02:57:26;;;;;;;5.60;3.15;;;;;;;;;;5002224;28;20045;-92
2023/06/13 02:59:52;;;;;;;4.50;4.20;;;;;;;;;;5002550;28;20053;-92
2023/06/13 03:02:25;;;;;;;4.05;3.75;;;;;;;;;;5038262;28;20145;-92
2023/06/13 03:04:52;;;;;;;4.10;3.70;;;;;;;;;;5021168;28;20132;-92
2023/06/13 03:07:18;;;;;;;4.43;3.40;;;;;;;;;;5038176;28;20119;-93
2023/06/13 03:09:44;;;;;;;4.53;4.00;;;;;;;;;;5021130;28;20045;-92
2023/06/13 03:12:13;;;;;;;4.93;3.60;;;;;;;;;;5036898;28;20100;-91
2023/06/13 03:14:39;;;;;;;3.92;3.45;;;;;;;;;;5037572;28;20080;-91
2023/06/13 03:17:06;;;;;;;4.90;3.08;;;;;;;;;;5039057;28;20045;-91
2023/06/13 03:19:32;;;;;;;3.13;2.92;;;;;;;;;;5037341;28;20135;-91
2023/06/13 03:21:58;;;;;;;5.75;4.03;;;;;;;;;;5036652;28;20062;-91
2023/06/13 03:24:24;;;;;;;3.83;3.53;;;;;;;;;;5036961;28;20053;-90
2023/06/13 03:26:51;;;;;;;3.25;3.05;;;;;;;;;;5020480;28;20053;-91
2023/06/13 03:29:17;;;;;;;3.80;3.53;;;;;;;;;;5036880;28;20076;-91
2023/06/13 03:31:43;;;;;;;3.78;3.47;;;;;;;;;;5003570;28;20060;-91
2023/06/13 03:34:09;;;;;;;4.53;4.13;;;;;;;;;;5020362;28;20382;-91
2023/06/13 03:36:37;;;;;;;4.00;3.70;;;;;;;;;;5036154;28;20379;-90
2023/06/13 03:39:03;;;;;;;4.07;3.45;;;;;;;;;;5020169;28;20418;-91
2023/06/13 03:41:29;;;;;;;4.90;3.58;;;;;;;;;;5036119;28;20041;-91
2023/06/13 03:43:55;;;;;;;3.85;3.55;;;;;;;;;;5020372;28;20052;-91
2023/06/13 03:46:21;;;;;;;6.93;3.25;;;;;;;;;;5036683;28;20045;-90
2023/06/13 03:48:49;;;;;;;4.13;3.78;;;;;;;;;;5019901;28;20049;-91
2023/06/13 03:51:15;;;;;;;4.35;3.50;;;;;;;;;;5036440;28;20052;-91
2023/06/13 03:53:41;;;;;;;4.88;3.72;;;;;;;;;;5037594;28;20392;-91
2023/06/13 03:56:07;;;;;;;3.42;3.20;;;;;;;;;;5036114;28;20068;-91
2023/06/13 03:58:34;;;;;;;6.97;3.40;;;;;;;;;;5036283;28;20402;-90
2023/06/13 04:01:00;;;;;;;5.05;3.17;;;;;;;;;;5035843;28;20104;-91
2023/06/13 04:03:29;;;;;;;4.15;3.15;;;;;;;;;;5036372;28;20065;-91
2023/06/13 04:05:55;;;;;;;3.58;3.28;;;;;;;;;;5019762;28;20397;-91
2023/06/13 04:08:21;;;;;;;3.60;3.15;;;;;;;;;;5035869;28;20398;-91
2023/06/13 04:10:48;;;;;;;3.83;3.22;;;;;;;;;;5037247;28;20508;-91
2023/06/13 04:13:14;;;;;;;3.70;3.47;;;;;;;;;;5019330;28;20470;-91
2023/06/13 04:15:40;;;;;;;3.95;3.10;;;;;;;;;;5037467;28;20052;-91
2023/06/13 04:18:06;;;;;;;4.25;3.10;;;;;;;;;;5035840;28;20053;-91
2023/06/13 04:20:34;;;;;;;3.45;2.90;;;;;;;;;;5019468;28;20103;-91
2023/06/13 04:23:01;;;;;;;4.40;3.05;;;;;;;;;;5036132;28;20049;-90
2023/06/13 04:25:27;;;;;;;4.25;2.50;;;;;;;;;;5035243;28;20052;-91
2023/06/13 04:27:57;;;;;;;3.80;2.47;;;;;;;;;;5036920;28;20050;-91
2023/06/13 04:30:24;;;;;;;3.25;2.47;;;;;;;;;;5035331;28;20060;-91
2023/06/13 04:32:51;;;;;;;3.42;3.13;;;;;;;;;;5035319;28;20100;-91
2023/06/13 04:35:22;;;;;;;2.90;2.70;;;;;;;;;;5036284;28;20053;-91
2023/06/13 04:37:48;;;;;;;2.70;2.50;;;;;;;;;;5036045;28;20042;-91
2023/06/13 04:40:16;;;;;;;3.58;2.97;;;;;;;;;;5035773;28;20057;-91
2023/06/13 04:42:47;;;;;;;2.67;2.47;;;;;;;;;;5037017;28;20045;-92
2023/06/13 04:45:15;;;;;;;5.25;2.65;;;;;;;;;;5019168;28;20049;-90
2023/06/13 04:47:45;;;;;;;7.43;2.65;;;;;;;;;;5018925;28;20486;-90
2023/06/13 04:50:11;;;;;;;5.18;2.70;;;;;;;;;;5036183;28;20045;-90
2023/06/13 04:52:40;;;;;;;6.40;2.47;;;;;;;;;;5034873;28;20053;-89
2023/06/13 04:55:07;;;;;;;2.55;2.35;;;;;;;;;;5034327;28;20052;-90
2023/06/13 04:57:33;;;;;;;2.20;2.10;;;;;;;;;;5017980;28;20107;-90
2023/06/13 04:59:59;;;;;;;6.43;2.08;;;;;;;;;;5035327;28;20045;-89
2023/06/13 05:02:25;;;;;;;8.07;1.95;;;;;;;;;;5036253;28;20053;-90
2023/06/13 05:04:58;;;;;;;2.58;2.38;;;;;;;;;;5020769;28;20395;-90
2023/06/13 05:07:24;;;;;;;3.25;2.38;;;;;;;;;;5035600;28;20128;-89
2023/06/13 05:09:50;;;;;;;3.30;2.63;;;;;;;;;;5018229;28;20099;-90
2023/06/13 05:12:16;;;;;;;3.42;1.95;;;;;;;;;;5017924;28;20041;-90
2023/06/13 05:14:43;;;;;;;2.75;2.28;;;;;;;;;;5018285;28;20057;-89
2023/06/13 05:17:09;;;;;;;4.90;2.28;;;;;;;;;;5034093;28;20045;-89
2023/06/13 05:19:37;;;;;;;2.88;2.33;;;;;;;;;;5034521;28;20049;-90
2023/06/13 05:22:05;;;;;;;3.78;1.73;;;;;;;;;;5034534;28;20108;-89
2023/06/13 05:24:31;;;;;;;2.55;2.10;;;;;;;;;;5017455;28;20496;-89
2023/06/13 05:26:58;;;;;;;2.72;1.92;;;;;;;;;;5017532;28;20141;-89
2023/06/13 05:29:24;;;;;;;4.35;2.22;;;;;;;;;;5017581;28;20053;-89
2023/06/13 05:31:50;;;;;;;9.00;1.95;;;;;;;;;;5033524;28;20092;-89
2023/06/13 05:34:16;;;;;;;3.10;1.90;;;;;;;;;;5017654;28;20087;-88
2023/06/13 05:36:42;;;;;;;4.80;1.80;;;;;;;;;;5017610;28;20107;-89
2023/06/13 05:39:08;;;;;;;4.10;2.13;;;;;;;;;;5033746;28;20049;-89
2023/06/13 05:41:34;;;;;;;4.60;1.98;;;;;;;;;;5033620;28;20133;-89
2023/06/13 05:44:01;;;;;;;1.95;1.77;;;;;;;;;;5016812;28;20057;-90
2023/06/13 05:46:27;;;;;;;2.83;2.05;;;;;;;;;;5033768;28;20054;-89
2023/06/13 05:48:53;;;;;;;3.45;2.00;;;;;;;;;;5017317;28;20057;-90
2023/06/13 05:51:19;;;;;;;3.17;1.90;;;;;;;;;;5034138;28;20041;-90
2023/06/13 05:53:46;;;;;;;4.45;1.90;;;;;;;;;;5033864;28;20056;-90
2023/06/13 05:56:12;;;;;;;2.53;1.75;;;;;;;;;;5017496;28;20115;-90
2023/06/13 05:58:38;;;;;;;3.83;1.95;;;;;;;;;;5017608;28;20049;-90
2023/06/13 06:01:04;;;;;;;4.18;1.85;;;;;;;;;;5033569;28;20046;-92
2023/06/13 06:03:31;;;;;;;2.88;1.83;;;;;;;;;;5034747;28;20049;-91
2023/06/13 06:05:58;;;;;;;5.30;1.55;;;;;;;;;;5017745;28;20045;-91
2023/06/13 06:08:24;;;;;;;4.93;2.00;;;;;;;;;;5035155;28;20088;-90
2023/06/13 06:10:50;;;;;;;4.55;1.88;;;;;;;;;;5017741;28;20053;-90
2023/06/13 06:13:16;;;;;;;3.10;1.50;;;;;;;;;;5017208;28;20084;-91
2023/06/13 06:15:42;;;;;;;4.55;1.80;;;;;;;;;;5033536;28;20049;-91
2023/06/13 06:18:08;;;;;;;2.97;1.70;;;;;;;;;;5000834;28;20042;-92
2023/06/13 06:20:35;;;;;;;3.05;1.88;;;;;;;;;;5033854;28;20398;-91
2023/06/13 06:23:01;;;;;;;3.13;1.70;;;;;;;;;;5017792;28;20049;-93
2023/06/13 06:25:27;;;;;;;3.60;1.45;;;;;;;;;;5017629;28;20513;-91
2023/06/13 06:27:55;;;;;;;4.05;1.70;;;;;;;;;;5017359;28;20049;-91
2023/06/13 06:30:21;;;;;;;3.50;1.83;;;;;;;;;;5016744;28;20052;-91
2023/06/13 06:32:47;;;;;;;4.55;1.50;;;;;;;;;;5016756;28;20081;-91
2023/06/13 06:35:16;;;;;;;7.57;2.17;;;;;;;;;;5022382;28;20049;-89
2023/06/13 06:37:43;;;;;;;5.70;1.90;;;;;;;;;;5023536;28;20351;-89
2023/06/13 06:40:09;;;;;;;3.00;1.67;;;;;;;;;;5007210;28;20065;-90
2023/06/13 06:42:35;;;;;;;1.92;1.67;;;;;;;;;;5023818;28;20041;-90
2023/06/13 06:45:02;;;;;;;4.10;1.63;;;;;;;;;;5039916;28;20095;-89
2023/06/13 06:47:28;;;;;;;3.97;1.70;;;;;;;;;;5040215;28;20049;-90
2023/06/13 06:49:54;;;;;;;2.92;1.52;;;;;;;;;;5040339;28;20094;-90
2023/06/13 06:52:20;;;;;;;4.60;1.88;;;;;;;;;;5023383;28;20041;-90
2023/06/13 06:54:47;;;;;;;5.85;1.77;;;;;;;;;;5023325;28;20397;-90
2023/06/13 06:57:13;;;;;;;3.65;1.10;;;;;;;;;;5023229;28;20159;-90
2023/06/13 06:59:39;;;;;;;3.35;1.70;;;;;;;;;;5046174;28;20136;-89
2023/06/13 07:02:05;;;;;;;2.55;1.42;;;;;;;;;;5021805;28;20042;-90
2023/06/13 07:04:32;;;;;;;1.88;1.38;;;;;;;;;;5009586;28;20053;-90
2023/06/13 07:06:58;;;;;;;3.58;1.40;;;;;;;;;;5061659;28;20040;-90
2023/06/13 07:09:24;;;;;;;4.47;1.35;;;;;;;;;;5045435;28;20060;-92
2023/06/13 07:11:53;;;;;;;2.45;1.60;;;;;;;;;;5031548;28;20047;-92
2023/06/13 07:14:19;;;;;;;3.80;1.77;;;;;;;;;;5029927;28;20045;-90
2023/06/13 07:16:45;;;;;;;1.70;1.42;;;;;;;;;;5027281;28;20049;-90
2023/06/13 07:19:12;;;;;;;7.28;1.60;;;;;;;;;;5040176;28;20099;-89
2023/06/13 07:21:38;;;;;;;1.83;1.50;;;;;;;;;;5040072;28;20053;-90
2023/06/13 07:24:05;;;;;;;1.80;1.25;;;;;;;;;;5024319;28;20052;-92
2023/06/13 07:26:39;;;;;;;2.17;1.65;;;;;;;;;;5007023;28;20061;-92
2023/06/13 07:29:07;;;;;;;1.85;1.52;;;;;;;;;;5007767;28;20045;-92
2023/06/13 07:31:33;;;;;;;3.42;1.77;;;;;;;;;;5024623;28;20090;-92
2023/06/13 07:34:00;;;;;;;3.40;1.75;;;;;;;;;;5024779;28;20049;-93
2023/06/13 07:36:27;;;;;;;2.58;1.80;;;;;;;;;;5023337;28;20521;-91
2023/06/13 07:38:53;;;;;;;1.92;1.67;;;;;;;;;;5023576;28;20061;-92
2023/06/13 07:41:19;;;;;;;4.85;1.77;;;;;;;;;;5007594;28;20041;-92
2023/06/13 07:43:46;;;;;;;3.67;2.08;;;;;;;;;;5040175;28;20056;-92
2023/06/13 07:46:12;;;;;;;2.63;1.73;;;;;;;;;;5021014;28;20053;-90
2023/06/13 07:48:38;;;;;;;6.40;2.10;;;;;;;;;;5019736;28;20128;-93
2023/06/13 07:51:07;;;;;;;1.70;1.60;;;;;;;;;;5038326;28;20050;-92
2023/06/13 07:53:33;;;;;;;2.72;1.75;;;;;;;;;;5022358;28;20052;-91
2023/06/13 07:56:02;;;;;;;4.57;2.05;;;;;;;;;;5020580;28;20049;-91
2023/06/13 07:58:29;;;;;;;1.85;1.65;;;;;;;;;;5019681;28;20049;-92
2023/06/13 08:00:57;;;;;;;4.57;1.90;;;;;;;;;;5018944;28;20179;-92
2023/06/13 08:03:24;;;;;;;5.38;2.03;;;;;;;;;;5035994;28;20056;-92
2023/06/13 08:05:53;;;;;;;1.98;1.88;;;;;;;;;;5019777;28;20045;-92
2023/06/13 08:08:19;;;;;;;4.75;2.30;;;;;;;;;;5035410;28;20037;-93
2023/06/13 08:10:48;;;;;;;2.38;2.17;;;;;;;;;;5019381;28;20052;-91
2023/06/13 08:13:16;;;;;;;5.32;2.35;;;;;;;;;;5035533;28;20144;-92
2023/06/13 08:15:42;;;;;;;6.32;2.55;;;;;;;;;;5019375;28;20103;-92
2023/06/13 08:18:11;;;;;;;3.20;2.03;;;;;;;;;;5037231;28;20041;-94
2023/06/13 08:20:39;;;;;;;4.82;2.22;;;;;;;;;;5019410;28;20053;-94
2023/06/13 08:23:06;;;;;;;6.88;2.25;;;;;;;;;;5036780;28;20096;-93
2023/06/13 08:25:34;;;;;;;4.50;2.50;;;;;;;;;;5037145;28;20413;-93
2023/06/13 08:28:06;;;;;;;3.97;2.08;;;;;;;;;;5020431;28;20142;-94
2023/06/13 08:30:32;;;;;;;4.78;2.17;;;;;;;;;;5021029;28;20053;-93
2023/06/13 08:33:01;;;;;;;10.30;2.90;;;;;;;;;;5036937;28;20057;-93
2023/06/13 08:35:27;;;;;;;5.60;2.25;;;;;;;;;;5021685;28;20382;-93
2023/06/13 08:37:56;;;;;;;6.47;2.03;;;;;;;;;;5021225;28;20053;-95
2023/06/13 08:40:23;;;;;;;5.53;2.05;;;;;;;;;;5020717;28;20045;-93
2023/06/13 08:42:49;;;;;;;7.45;2.13;;;;;;;;;;5038056;28;20117;-94
2023/06/13 08:45:15;;;;;;;2.30;1.98;;;;;;;;;;5036627;28;20037;-95
2023/06/13 08:47:46;;;;;;;5.07;1.85;;;;;;;;;;5036402;28;20470;-94
2023/06/13 08:50:14;;;;;;;3.20;1.58;;;;;;;;;;5037005;28;20097;-94
2023/06/13 08:52:45;;;;;;;2.60;1.73;;;;;;;;;;5020626;28;20072;-95
2023/06/13 08:55:15;;;;;;;2.03;1.40;;;;;;;;;;5038554;28;20120;-95
2023/06/13 08:57:42;;;;;;;6.60;1.65;;;;;;;;;;5036997;28;20053;-94
2023/06/13 09:00:12;;;;;;;2.30;1.80;;;;;;;;;;5036833;28;20046;-95
2023/06/13 09:02:39;;;;;;;5.70;1.52;;;;;;;;;;5037818;28;20089;-95
2023/06/13 09:05:06;;;;;;;2.20;1.98;;;;;;;;;;5038090;28;20044;-94
2023/06/13 09:07:33;;;;;;;2.38;1.52;;;;;;;;;;5037632;28;20188;-95
2023/06/13 09:09:59;;;;;;;4.78;1.52;;;;;;;;;;5020562;28;20063;-96
2023/06/13 09:12:25;;;;;;;4.03;1.60;;;;;;;;;;5020139;28;20041;-93
2023/06/13 09:14:53;;;;;;;10.13;2.42;;;;;;;;;;5019470;28;20541;-95
2023/06/13 09:17:19;;;;;;;5.10;1.45;;;;;;;;;;5003550;28;20494;-94
2023/06/13 09:19:47;;;;;;;4.10;1.30;;;;;;;;;;5037070;28;20534;-95
2023/06/13 09:22:15;;;;;;;2.83;1.55;;;;;;;;;;5035718;28;20111;-96
2023/06/13 09:24:42;;;;;;;5.55;1.30;;;;;;;;;;5035641;28;20068;-95
2023/06/13 09:27:10;;;;;;;5.38;1.80;;;;;;;;;;5036370;28;20045;-95
2023/06/13 09:29:39;;;;;;;5.72;1.50;;;;;;;;;;5036787;28;20033;-96
2023/06/13 09:32:08;;;;;;;4.30;2.30;;;;;;;;;;5019781;28;20045;-94
2023/06/13 09:34:38;;;;;;;3.08;1.42;;;;;;;;;;5020976;28;20057;-94
2023/06/13 09:37:07;;;;;;;1.90;1.67;;;;;;;;;;5020633;28;20048;-95
2023/06/13 09:39:41;;;;;;;3.08;1.42;;;;;;;;;;5035683;28;20057;-94
2023/06/13 09:42:07;;;;;;;3.10;1.45;;;;;;;;;;5018766;28;20142;-95
2023/06/13 09:44:36;;;;;;;1.92;1.60;;;;;;;;;;5036548;28;20093;-94
2023/06/13 09:47:05;;;;;;;4.50;1.50;;;;;;;;;;5019363;28;20045;-94
2023/06/13 09:49:32;;;;;;;2.85;1.52;;;;;;;;;;5037131;28;20516;-95
2023/06/13 09:52:00;;;;;;;3.88;1.70;;;;;;;;;;5018000;28;20042;-93
2023/06/13 09:54:31;;;;;;;3.08;1.67;;;;;;;;;;5035402;28;20115;-95
2023/06/13 09:57:02;;;;;;;3.05;1.02;;;;;;;;;;5035301;28;20136;-93
2023/06/13 09:59:29;;;;;;;2.85;1.48;;;;;;;;;;5034643;28;20045;-96
2023/06/13 10:01:55;;;;;;;2.10;1.40;;;;;;;;;;5017641;28;20045;-95
2023/06/13 10:04:24;;;;;;;2.65;1.17;;;;;;;;;;5034052;28;20474;-94
2023/06/13 10:06:50;;;;;;;2.35;1.33;;;;;;;;;;5017350;28;20049;-93
2023/06/13 10:09:16;;;;;;;1.77;1.40;;;;;;;;;;5033515;28;20098;-93
2023/06/13 10:11:44;;;;;;;5.65;1.73;;;;;;;;;;5017636;28;20397;-94
2023/06/13 10:14:14;;;;;;;1.92;1.48;;;;;;;;;;5017264;28;20478;-94
2023/06/13 10:16:50;;;;;;;2.95;1.48;;;;;;;;;;5034925;28;20045;-93
2023/06/13 10:19:19;;;;;;;3.25;1.30;;;;;;;;;;5033795;28;20059;-92
2023/06/13 10:21:46;;;;;;;5.25;1.92;;;;;;;;;;5033285;28;20058;-93
2023/06/13 10:24:13;;;;;;;4.30;1.10;;;;;;;;;;5017062;28;20056;-93
2023/06/13 10:26:43;;;;;;;2.70;1.70;;;;;;;;;;5033695;28;20045;-90
2023/06/13 10:29:17;;;;;;;4.28;1.17;;;;;;;;;;5016282;28;20126;-90
2023/06/13 10:31:54;;;;;;;1.95;1.27;;;;;;;;;;5016422;28;20064;-91
2023/06/13 10:34:30;;;;;;;3.42;1.58;;;;;;;;;;5016825;28;20056;-90
2023/06/13 10:37:00;;;;;;;3.17;1.63;;;;;;;;;;5033015;28;20413;-90
2023/06/13 10:39:42;;;;;;;2.25;1.70;;;;;;;;;;5018783;28;20041;-93
2023/06/13 10:42:11;;;;;;;6.22;1.92;;;;;;;;;;5020117;28;20576;-92
2023/06/13 10:44:40;;;;;;;2.30;2.10;;;;;;;;;;5034221;28;20458;-92
2023/06/13 10:47:07;;;;;;;1.88;1.60;;;;;;;;;;5033641;28;20131;-91
2023/06/13 10:49:42;;;;;;;8.52;2.63;;;;;;;;;;5033813;28;20405;-93
2023/06/13 10:52:14;;;;;;;2.67;1.60;;;;;;;;;;5016810;28;20038;-91
2023/06/13 10:54:41;;;;;;;4.03;1.98;;;;;;;;;;5033966;28;20042;-92
2023/06/13 10:57:13;;;;;;;2.67;1.95;;;;;;;;;;5019432;28;20140;-92
2023/06/13 10:59:40;;;;;;;5.05;2.35;;;;;;;;;;5034593;28;20049;-91
2023/06/13 11:02:15;;;;;;;2.42;1.80;;;;;;;;;;5033133;28;20057;-92
2023/06/13 11:04:45;;;;;;;5.13;1.85;;;;;;;;;;5033897;28;20060;-91
2023/06/13 11:07:23;;;;;;;3.00;1.73;;;;;;;;;;5035174;28;20042;-90
2023/06/13 11:10:12;;;;;;;4.63;1.75;;;;;;;;;;5033841;28;20083;-91
2023/06/13 11:12:41;;;;;;;1.70;1.60;;;;;;;;;;5034887;28;20048;-91
2023/06/13 11:15:28;;;;;;;1.75;1.52;;;;;;;;;;5017049;28;20088;-89
2023/06/13 11:18:09;;;;;;;8.60;1.60;;;;;;;;;;5016543;28;20559;-89
2023/06/13 11:21:03;;;;;;;4.07;1.80;;;;;;;;;;5033391;28;20045;-90
2023/06/13 11:23:35;;;;;;;4.17;1.80;;;;;;;;;;5037341;28;20067;-90
2023/06/13 11:26:02;;;;;;;4.05;1.70;;;;;;;;;;5037038;28;20044;-91
2023/06/13 11:28:30;;;;;;;1.95;1.35;;;;;;;;;;5038057;28;20049;-91
2023/06/13 11:31:03;;;;;;;3.47;1.35;;;;;;;;;;5020340;28;20431;-91
2023/06/13 11:33:32;;;;;;;2.20;1.60;;;;;;;;;;5036734;28;20049;-90
2023/06/13 11:35:59;;;;;;;2.97;1.80;;;;;;;;;;5036480;28;20049;-90
2023/06/13 11:38:28;;;;;;;4.15;1.35;;;;;;;;;;5020719;28;20107;-89
2023/06/13 11:40:58;;;;;;;4.50;1.60;;;;;;;;;;5020409;28;20045;-88
2023/06/13 11:43:28;;;;;;;2.75;1.75;;;;;;;;;;5038332;28;20052;-90
2023/06/13 11:46:00;;;;;;;3.85;1.90;;;;;;;;;;5038924;28;20039;-90
2023/06/13 11:48:27;;;;;;;1.65;1.42;;;;;;;;;;5058064;28;20473;-89
2023/06/13 11:50:53;;;;;;;6.38;1.67;;;;;;;;;;5042060;28;20056;-90
2023/06/13 11:53:19;;;;;;;2.65;1.52;;;;;;;;;;5027258;28;20397;-89
2023/06/13 11:55:47;;;;;;;4.25;1.92;;;;;;;;;;5039776;28;20064;-91
2023/06/13 11:58:16;;;;;;;3.88;1.60;;;;;;;;;;5040195;28;20052;-91
2023/06/13 12:00:54;;;;;;;4.88;1.67;;;;;;;;;;5035707;28;20501;-90
2023/06/13 12:03:26;;;;;;;2.10;1.40;;;;;;;;;;5019837;28;20502;-91
2023/06/13 12:05:57;;;;;;;4.75;1.42;;;;;;;;;;5019966;28;20103;-89
2023/06/13 12:08:23;;;;;;;1.90;1.40;;;;;;;;;;5019272;28;20060;-88
2023/06/13 12:10:49;;;;;;;1.58;1.45;;;;;;;;;;5035881;28;20100;-90
2023/06/13 12:13:18;;;;;;;2.22;1.48;;;;;;;;;;5035842;28;20052;-89
2023/06/13 12:15:44;;;;;;;2.80;1.67;;;;;;;;;;5019404;28;20045;-89
2023/06/13 12:18:11;;;;;;;1.40;1.27;;;;;;;;;;5020499;28;20081;-90
2023/06/13 12:20:51;;;;;;;1.67;1.40;;;;;;;;;;5019502;28;20053;-91
2023/06/13 12:23:20;;;;;;;3.08;1.27;;;;;;;;;;5035477;28;20057;-90
2023/06/13 12:25:49;;;;;;;7.03;1.42;;;;;;;;;;5035068;28;20501;-89
2023/06/13 12:28:19;;;;;;;3.53;1.92;;;;;;;;;;5035036;28;20056;-89
2023/06/13 12:30:49;;;;;;;3.58;1.65;;;;;;;;;;5035438;28;20059;-89
2023/06/13 12:33:18;;;;;;;1.83;1.45;;;;;;;;;;5034559;28;20499;-90
2023/06/13 12:35:51;;;;;;;3.53;1.77;;;;;;;;;;5018584;28;20099;-89
2023/06/13 12:38:18;;;;;;;2.80;1.42;;;;;;;;;;5034404;28;20065;-89
2023/06/13 12:40:51;;;;;;;2.25;1.60;;;;;;;;;;5020007;28;20057;-89
2023/06/13 12:43:24;;;;;;;4.13;1.70;;;;;;;;;;5019951;28;20046;-90
2023/06/13 12:45:51;;;;;;;2.90;1.23;;;;;;;;;;5019767;28;20104;-88
2023/06/13 12:48:18;;;;;;;1.42;1.33;;;;;;;;;;5020182;28;20477;-92
2023/06/13 12:50:47;;;;;;;3.55;1.20;;;;;;;;;;5019711;28;20131;-91
2023/06/13 12:53:16;;;;;;;2.55;1.50;;;;;;;;;;5036450;28;20048;-90
2023/06/13 12:55:43;;;;;;;1.42;1.33;;;;;;;;;;5035596;28;20506;-91
2023/06/13 12:58:29;;;;;;;5.22;1.50;;;;;;;;;;5002769;28;20371;-91
2023/06/13 13:00:56;;;;;;;2.55;1.42;;;;;;;;;;5018038;28;20375;-91
2023/06/13 13:03:22;;;;;;;5.97;1.23;;;;;;;;;;5035962;28;20045;-90
2023/06/13 13:05:49;;;;;;;5.75;1.65;;;;;;;;;;5018634;28;20049;-91
2023/06/13 13:08:16;;;;;;;3.08;1.95;;;;;;;;;;5002947;28;20056;-93
2023/06/13 13:10:43;;;;;;;2.45;1.73;;;;;;;;;;5035787;28;20132;-92
2023/06/13 13:13:11;;;;;;;3.97;2.03;;;;;;;;;;5036720;28;20049;-91
2023/06/13 13:15:40;;;;;;;3.83;1.35;;;;;;;;;;5035733;28;20108;-92
2023/06/13 13:18:07;;;;;;;2.85;1.55;;;;;;;;;;5019227;28;20068;-90
2023/06/13 13:20:35;;;;;;;2.10;1.27;;;;;;;;;;5036641;28;20068;-92
2023/06/13 13:23:02;;;;;;;1.40;1.30;;;;;;;;;;5020287;28;20057;-92
2023/06/13 13:25:28;;;;;;;2.60;1.30;;;;;;;;;;5018912;28;20088;-92
2023/06/13 13:27:56;;;;;;;2.38;1.30;;;;;;;;;;5018112;28;20054;-93
2023/06/13 13:30:22;;;;;;;3.58;1.73;;;;;;;;;;5023207;28;20049;-91
2023/06/13 13:32:51;;;;;;;3.85;1.40;;;;;;;;;;5020443;28;20038;-92
2023/06/13 13:35:18;;;;;;;3.33;1.40;;;;;;;;;;5036641;28;20132;-92
2023/06/13 13:37:49;;;;;;;5.13;1.77;;;;;;;;;;5019171;28;20398;-93
2023/06/13 13:40:16;;;;;;;4.30;1.50;;;;;;;;;;5019485;28;20053;-92
2023/06/13 13:42:42;;;;;;;2.75;1.15;;;;;;;;;;5018690;28;20052;-93
2023/06/13 13:45:14;;;;;;;2.25;1.35;;;;;;;;;;5034834;28;20072;-94
2023/06/13 13:47:51;;;;;;;3.95;1.30;;;;;;;;;;5018720;28;20048;-93
2023/06/13 13:50:17;;;;;;;2.15;1.50;;;;;;;;;;5035247;28;20058;-94
2023/06/13 13:52:49;;;;;;;2.95;2.17;;;;;;;;;;5019013;28;20136;-94
2023/06/13 13:55:17;;;;;;;2.55;1.45;;;;;;;;;;5018264;28;20502;-93
2023/06/13 13:57:44;;;;;;;4.43;1.60;;;;;;;;;;5034349;28;20049;-93
2023/06/13 14:00:13;;;;;;;1.60;1.50;;;;;;;;;;5018220;28;20049;-93
2023/06/13 14:02:39;;;;;;;3.33;1.10;;;;;;;;;;5018373;28;20482;-93
2023/06/13 14:05:08;;;;;;;3.40;1.30;;;;;;;;;;5034968;28;20450;-92
2023/06/13 14:07:37;;;;;;;2.50;1.33;;;;;;;;;;5034981;28;20128;-93
2023/06/13 14:10:05;;;;;;;2.65;1.48;;;;;;;;;;5018635;28;20060;-92
2023/06/13 14:12:32;;;;;;;3.58;1.60;;;;;;;;;;5018488;28;20132;-93
2023/06/13 14:14:58;;;;;;;2.50;1.20;;;;;;;;;;5035269;28;20057;-93
2023/06/13 14:17:24;;;;;;;3.92;1.40;;;;;;;;;;5035903;28;20100;-93
2023/06/13 14:19:52;;;;;;;2.00;1.27;;;;;;;;;;5018445;28;20076;-94
2023/06/13 14:22:18;;;;;;;1.65;1.48;;;;;;;;;;5035941;28;20111;-93
2023/06/13 14:24:44;;;;;;;2.58;1.38;;;;;;;;;;5035465;28;20049;-95
2023/06/13 14:27:11;;;;;;;2.63;1.60;;;;;;;;;;5034110;28;20132;-93
2023/06/13 14:29:37;;;;;;;2.75;1.15;;;;;;;;;;5034851;28;20057;-93
2023/06/13 14:32:04;;;;;;;2.55;1.40;;;;;;;;;;5018078;28;20051;-93
2023/06/13 14:34:32;;;;;;;3.10;1.60;;;;;;;;;;5002161;28;20132;-93
2023/06/13 14:36:58;;;;;;;2.88;1.35;;;;;;;;;;5017836;28;20110;-92
2023/06/13 14:39:27;;;;;;;2.05;1.42;;;;;;;;;;5017938;28;20085;-92
2023/06/13 14:41:55;;;;;;;2.38;1.05;;;;;;;;;;5017653;28;20050;-94
2023/06/13 14:44:21;;;;;;;3.20;1.20;;;;;;;;;;5019001;28;20075;-93
2023/06/13 14:46:48;;;;;;;3.30;1.27;;;;;;;;;;5034777;28;20481;-93
2023/06/13 14:49:18;;;;;;;2.20;1.20;;;;;;;;;;5018568;28;20053;-93